sensor_id;sensor_type;location;lat;lon;timestamp;P1;durP1;ratioP1;P2;durP2;ratioP2
23155;SDS011;11746;50.876;4.246;2023-06-05T00:02:21;6.05;;;2.47;;
23155;SDS011;11746;50.876;4.246;2023-06-05T00:04:49;5.68;;;2.30;;
23155;SDS011;11746;50.876;4.246;2023-06-05T00:07:15;4.40;;;2.30;;
23155;SDS011;11746;50.876;4.246;2023-06-05T00:09:43;4.95;;;2.53;;
23155;SDS011;11746;50.876;4.246;2023-06-05T00:12:09;5.28;;;2.47;;
23155;SDS011;11746;50.876;4.246;2023-06-05T00:14:37;8.20;;;2.67;;
23155;SDS011;11746;50.876;4.246;2023-06-05T00:17:02;5.80;;;2.95;;
23155;SDS011;11746;50.876;4.246;2023-06-05T00:19:32;6.78;;;3.22;;
23155;SDS011;11746;50.876;4.246;2023-06-05T00:21:59;6.55;;;2.88;;
23155;SDS011;11746;50.876;4.246;2023-06-05T00:24:25;7.82;;;2.80;;
23155;SDS011;11746;50.876;4.246;2023-06-05T00:26:53;4.32;;;2.70;;
23155;SDS011;11746;50.876;4.246;2023-06-05T00:29:19;5.13;;;2.75;;
23155;SDS011;11746;50.876;4.246;2023-06-05T00:31:44;5.70;;;2.92;;
23155;SDS011;11746;50.876;4.246;2023-06-05T00:34:12;5.25;;;2.53;;
23155;SDS011;11746;50.876;4.246;2023-06-05T00:36:38;7.78;;;2.55;;
23155;SDS011;11746;50.876;4.246;2023-06-05T00:39:05;5.45;;;2.70;;
23155;SDS011;11746;50.876;4.246;2023-06-05T00:41:31;6.93;;;2.80;;
23155;SDS011;11746;50.876;4.246;2023-06-05T00:44:00;6.45;;;3.30;;
23155;SDS011;11746;50.876;4.246;2023-06-05T00:46:25;6.22;;;2.70;;
23155;SDS011;11746;50.876;4.246;2023-06-05T00:48:51;5.05;;;2.75;;
23155;SDS011;11746;50.876;4.246;2023-06-05T00:51:19;6.10;;;3.08;;
23155;SDS011;11746;50.876;4.246;2023-06-05T00:53:45;10.30;;;2.95;;
23155;SDS011;11746;50.876;4.246;2023-06-05T00:56:15;4.90;;;2.75;;
23155;SDS011;11746;50.876;4.246;2023-06-05T00:58:45;6.15;;;2.47;;
23155;SDS011;11746;50.876;4.246;2023-06-05T01:01:12;6.00;;;2.90;;
23155;SDS011;11746;50.876;4.246;2023-06-05T01:03:40;9.45;;;2.90;;
23155;SDS011;11746;50.876;4.246;2023-06-05T01:06:06;5.85;;;2.63;;
23155;SDS011;11746;50.876;4.246;2023-06-05T01:08:32;7.97;;;2.95;;
23155;SDS011;11746;50.876;4.246;2023-06-05T01:11:13;5.25;;;2.97;;
23155;SDS011;11746;50.876;4.246;2023-06-05T01:13:46;10.13;;;2.97;;
23155;SDS011;11746;50.876;4.246;2023-06-05T01:16:32;6.68;;;2.72;;
23155;SDS011;11746;50.876;4.246;2023-06-05T01:18:59;9.95;;;3.00;;
23155;SDS011;11746;50.876;4.246;2023-06-05T01:21:31;6.43;;;2.80;;
23155;SDS011;11746;50.876;4.246;2023-06-05T01:24:00;6.78;;;3.03;;
23155;SDS011;11746;50.876;4.246;2023-06-05T01:26:35;5.97;;;3.45;;
23155;SDS011;11746;50.876;4.246;2023-06-05T01:29:06;4.78;;;3.30;;
23155;SDS011;11746;50.876;4.246;2023-06-05T01:31:37;6.78;;;3.30;;
23155;SDS011;11746;50.876;4.246;2023-06-05T01:34:07;5.80;;;3.00;;
23155;SDS011;11746;50.876;4.246;2023-06-05T01:36:38;4.80;;;2.95;;
23155;SDS011;11746;50.876;4.246;2023-06-05T01:39:05;6.95;;;3.15;;
23155;SDS011;11746;50.876;4.246;2023-06-05T01:41:33;9.63;;;3.33;;
23155;SDS011;11746;50.876;4.246;2023-06-05T01:44:06;7.38;;;3.00;;
23155;SDS011;11746;50.876;4.246;2023-06-05T01:46:34;7.22;;;2.97;;
23155;SDS011;11746;50.876;4.246;2023-06-05T01:49:01;6.85;;;3.03;;
23155;SDS011;11746;50.876;4.246;2023-06-05T01:51:28;7.10;;;3.13;;
23155;SDS011;11746;50.876;4.246;2023-06-05T01:53:53;5.47;;;2.78;;
23155;SDS011;11746;50.876;4.246;2023-06-05T01:56:22;5.18;;;2.90;;
23155;SDS011;11746;50.876;4.246;2023-06-05T01:58:49;5.72;;;3.13;;
23155;SDS011;11746;50.876;4.246;2023-06-05T02:01:17;7.85;;;3.35;;
23155;SDS011;11746;50.876;4.246;2023-06-05T02:03:48;7.47;;;3.72;;
23155;SDS011;11746;50.876;4.246;2023-06-05T02:06:15;6.40;;;3.60;;
23155;SDS011;11746;50.876;4.246;2023-06-05T02:08:41;6.95;;;3.45;;
23155;SDS011;11746;50.876;4.246;2023-06-05T02:11:07;6.72;;;3.60;;
23155;SDS011;11746;50.876;4.246;2023-06-05T02:13:39;6.82;;;3.70;;
23155;SDS011;11746;50.876;4.246;2023-06-05T02:16:09;10.30;;;3.60;;
23155;SDS011;11746;50.876;4.246;2023-06-05T02:18:36;6.20;;;3.92;;
23155;SDS011;11746;50.876;4.246;2023-06-05T02:21:04;6.13;;;3.45;;
23155;SDS011;11746;50.876;4.246;2023-06-05T02:23:30;5.95;;;3.00;;
23155;SDS011;11746;50.876;4.246;2023-06-05T02:25:56;5.78;;;3.30;;
23155;SDS011;11746;50.876;4.246;2023-06-05T02:28:22;6.18;;;3.53;;
23155;SDS011;11746;50.876;4.246;2023-06-05T02:30:52;6.53;;;3.67;;
23155;SDS011;11746;50.876;4.246;2023-06-05T02:33:18;6.82;;;3.72;;
23155;SDS011;11746;50.876;4.246;2023-06-05T02:35:46;5.05;;;3.28;;
23155;SDS011;11746;50.876;4.246;2023-06-05T02:38:14;5.03;;;3.30;;
23155;SDS011;11746;50.876;4.246;2023-06-05T02:40:42;8.75;;;4.28;;
23155;SDS011;11746;50.876;4.246;2023-06-05T02:43:08;7.68;;;3.55;;
23155;SDS011;11746;50.876;4.246;2023-06-05T02:45:39;5.40;;;3.65;;
23155;SDS011;11746;50.876;4.246;2023-06-05T02:48:06;8.85;;;3.72;;
23155;SDS011;11746;50.876;4.246;2023-06-05T02:50:32;5.18;;;3.47;;
23155;SDS011;11746;50.876;4.246;2023-06-05T02:52:58;5.72;;;4.07;;
23155;SDS011;11746;50.876;4.246;2023-06-05T02:55:23;6.53;;;3.67;;
23155;SDS011;11746;50.876;4.246;2023-06-05T02:57:56;5.13;;;3.85;;
23155;SDS011;11746;50.876;4.246;2023-06-05T03:00:22;8.10;;;3.88;;
23155;SDS011;11746;50.876;4.246;2023-06-05T03:02:51;8.88;;;4.15;;
23155;SDS011;11746;50.876;4.246;2023-06-05T03:05:19;8.68;;;4.15;;
23155;SDS011;11746;50.876;4.246;2023-06-05T03:07:49;9.93;;;3.88;;
23155;SDS011;11746;50.876;4.246;2023-06-05T03:10:18;6.07;;;3.30;;
23155;SDS011;11746;50.876;4.246;2023-06-05T03:12:44;7.15;;;4.00;;
23155;SDS011;11746;50.876;4.246;2023-06-05T03:15:10;6.97;;;3.75;;
23155;SDS011;11746;50.876;4.246;2023-06-05T03:17:36;7.88;;;4.05;;
23155;SDS011;11746;50.876;4.246;2023-06-05T03:20:02;7.88;;;3.67;;
23155;SDS011;11746;50.876;4.246;2023-06-05T03:22:28;7.60;;;3.92;;
23155;SDS011;11746;50.876;4.246;2023-06-05T03:24:57;6.88;;;4.05;;
23155;SDS011;11746;50.876;4.246;2023-06-05T03:27:22;7.70;;;4.43;;
23155;SDS011;11746;50.876;4.246;2023-06-05T03:29:50;8.45;;;4.10;;
23155;SDS011;11746;50.876;4.246;2023-06-05T03:32:16;6.65;;;4.18;;
23155;SDS011;11746;50.876;4.246;2023-06-05T03:34:41;8.77;;;4.05;;
23155;SDS011;11746;50.876;4.246;2023-06-05T03:37:13;11.57;;;4.25;;
23155;SDS011;11746;50.876;4.246;2023-06-05T03:39:39;7.60;;;4.47;;
23155;SDS011;11746;50.876;4.246;2023-06-05T03:42:05;8.52;;;4.15;;
23155;SDS011;11746;50.876;4.246;2023-06-05T03:44:36;6.95;;;4.38;;
23155;SDS011;11746;50.876;4.246;2023-06-05T03:47:02;8.68;;;4.28;;
23155;SDS011;11746;50.876;4.246;2023-06-05T03:49:28;7.43;;;4.45;;
23155;SDS011;11746;50.876;4.246;2023-06-05T03:51:54;7.47;;;3.97;;
23155;SDS011;11746;50.876;4.246;2023-06-05T03:54:25;6.53;;;4.28;;
23155;SDS011;11746;50.876;4.246;2023-06-05T03:56:57;10.38;;;4.53;;
23155;SDS011;11746;50.876;4.246;2023-06-05T03:59:26;7.13;;;4.22;;
23155;SDS011;11746;50.876;4.246;2023-06-05T04:01:55;7.80;;;4.40;;
23155;SDS011;11746;50.876;4.246;2023-06-05T04:04:24;6.90;;;4.22;;
23155;SDS011;11746;50.876;4.246;2023-06-05T04:06:53;8.73;;;4.15;;
23155;SDS011;11746;50.876;4.246;2023-06-05T04:09:20;8.77;;;4.95;;
23155;SDS011;11746;50.876;4.246;2023-06-05T04:11:48;6.63;;;5.07;;
23155;SDS011;11746;50.876;4.246;2023-06-05T04:14:14;8.02;;;4.35;;
23155;SDS011;11746;50.876;4.246;2023-06-05T04:16:40;8.10;;;4.47;;
23155;SDS011;11746;50.876;4.246;2023-06-05T04:19:09;7.43;;;4.50;;
23155;SDS011;11746;50.876;4.246;2023-06-05T04:21:41;9.13;;;4.40;;
23155;SDS011;11746;50.876;4.246;2023-06-05T04:24:07;6.38;;;4.40;;
23155;SDS011;11746;50.876;4.246;2023-06-05T04:26:37;11.45;;;4.88;;
23155;SDS011;11746;50.876;4.246;2023-06-05T04:29:06;8.15;;;4.60;;
23155;SDS011;11746;50.876;4.246;2023-06-05T04:31:37;9.63;;;4.75;;
23155;SDS011;11746;50.876;4.246;2023-06-05T04:34:08;7.70;;;4.95;;
23155;SDS011;11746;50.876;4.246;2023-06-05T04:36:34;9.73;;;4.88;;
23155;SDS011;11746;50.876;4.246;2023-06-05T04:39:00;8.48;;;5.22;;
23155;SDS011;11746;50.876;4.246;2023-06-05T04:41:52;9.55;;;4.95;;
23155;SDS011;11746;50.876;4.246;2023-06-05T04:44:17;9.18;;;4.85;;
23155;SDS011;11746;50.876;4.246;2023-06-05T04:46:44;9.15;;;5.07;;
23155;SDS011;11746;50.876;4.246;2023-06-05T04:49:13;8.23;;;5.40;;
23155;SDS011;11746;50.876;4.246;2023-06-05T04:51:42;9.35;;;5.50;;
23155;SDS011;11746;50.876;4.246;2023-06-05T04:54:09;6.68;;;4.93;;
23155;SDS011;11746;50.876;4.246;2023-06-05T04:56:35;10.20;;;5.53;;
23155;SDS011;11746;50.876;4.246;2023-06-05T04:59:04;8.48;;;5.13;;
23155;SDS011;11746;50.876;4.246;2023-06-05T05:01:32;9.13;;;5.47;;
23155;SDS011;11746;50.876;4.246;2023-06-05T05:04:00;11.63;;;5.97;;
23155;SDS011;11746;50.876;4.246;2023-06-05T05:06:25;7.75;;;5.10;;
23155;SDS011;11746;50.876;4.246;2023-06-05T05:08:53;11.27;;;6.07;;
23155;SDS011;11746;50.876;4.246;2023-06-05T05:11:21;10.57;;;5.28;;
23155;SDS011;11746;50.876;4.246;2023-06-05T05:13:47;7.07;;;5.20;;
23155;SDS011;11746;50.876;4.246;2023-06-05T05:16:17;6.60;;;5.05;;
23155;SDS011;11746;50.876;4.246;2023-06-05T05:18:45;9.55;;;5.63;;
23155;SDS011;11746;50.876;4.246;2023-06-05T05:21:11;8.15;;;5.72;;
23155;SDS011;11746;50.876;4.246;2023-06-05T05:23:39;10.30;;;5.95;;
23155;SDS011;11746;50.876;4.246;2023-06-05T05:26:06;8.18;;;5.68;;
23155;SDS011;11746;50.876;4.246;2023-06-05T05:28:32;10.82;;;5.80;;
23155;SDS011;11746;50.876;4.246;2023-06-05T05:30:58;7.40;;;5.65;;
23155;SDS011;11746;50.876;4.246;2023-06-05T05:33:24;11.00;;;5.93;;
23155;SDS011;11746;50.876;4.246;2023-06-05T05:35:49;8.30;;;5.63;;
23155;SDS011;11746;50.876;4.246;2023-06-05T05:38:15;11.27;;;6.25;;
23155;SDS011;11746;50.876;4.246;2023-06-05T05:40:43;8.75;;;5.57;;
23155;SDS011;11746;50.876;4.246;2023-06-05T05:43:09;8.35;;;6.20;;
23155;SDS011;11746;50.876;4.246;2023-06-05T05:45:35;10.50;;;6.18;;
23155;SDS011;11746;50.876;4.246;2023-06-05T05:48:04;9.52;;;5.80;;
23155;SDS011;11746;50.876;4.246;2023-06-05T05:50:30;10.90;;;6.13;;
23155;SDS011;11746;50.876;4.246;2023-06-05T05:52:55;8.80;;;5.88;;
23155;SDS011;11746;50.876;4.246;2023-06-05T05:55:21;10.45;;;6.30;;
23155;SDS011;11746;50.876;4.246;2023-06-05T05:57:51;7.97;;;6.13;;
23155;SDS011;11746;50.876;4.246;2023-06-05T06:00:17;23.73;;;7.63;;
23155;SDS011;11746;50.876;4.246;2023-06-05T06:02:45;13.65;;;6.70;;
23155;SDS011;11746;50.876;4.246;2023-06-05T06:05:12;10.50;;;6.30;;
23155;SDS011;11746;50.876;4.246;2023-06-05T06:07:40;12.32;;;6.53;;
23155;SDS011;11746;50.876;4.246;2023-06-05T06:10:10;10.13;;;6.60;;
23155;SDS011;11746;50.876;4.246;2023-06-05T06:12:39;9.65;;;6.28;;
23155;SDS011;11746;50.876;4.246;2023-06-05T06:15:06;9.73;;;6.13;;
23155;SDS011;11746;50.876;4.246;2023-06-05T06:17:35;10.75;;;6.30;;
23155;SDS011;11746;50.876;4.246;2023-06-05T06:20:04;11.07;;;6.43;;
23155;SDS011;11746;50.876;4.246;2023-06-05T06:22:31;13.98;;;6.57;;
23155;SDS011;11746;50.876;4.246;2023-06-05T06:24:58;8.65;;;6.10;;
23155;SDS011;11746;50.876;4.246;2023-06-05T06:27:25;11.27;;;6.47;;
23155;SDS011;11746;50.876;4.246;2023-06-05T06:29:51;12.27;;;7.43;;
23155;SDS011;11746;50.876;4.246;2023-06-05T06:32:20;9.18;;;6.72;;
23155;SDS011;11746;50.876;4.246;2023-06-05T06:34:47;8.65;;;6.53;;
23155;SDS011;11746;50.876;4.246;2023-06-05T06:37:13;13.35;;;6.43;;
23155;SDS011;11746;50.876;4.246;2023-06-05T06:39:44;10.63;;;6.45;;
23155;SDS011;11746;50.876;4.246;2023-06-05T06:42:12;11.70;;;6.53;;
23155;SDS011;11746;50.876;4.246;2023-06-05T06:44:38;10.63;;;6.40;;
23155;SDS011;11746;50.876;4.246;2023-06-05T06:47:04;9.95;;;6.53;;
23155;SDS011;11746;50.876;4.246;2023-06-05T06:49:35;10.27;;;6.50;;
23155;SDS011;11746;50.876;4.246;2023-06-05T06:52:01;12.23;;;7.18;;
23155;SDS011;11746;50.876;4.246;2023-06-05T06:54:27;16.63;;;7.32;;
23155;SDS011;11746;50.876;4.246;2023-06-05T06:56:54;11.10;;;6.65;;
23155;SDS011;11746;50.876;4.246;2023-06-05T06:59:23;10.60;;;6.70;;
23155;SDS011;11746;50.876;4.246;2023-06-05T07:02:10;9.25;;;6.50;;
23155;SDS011;11746;50.876;4.246;2023-06-05T07:04:40;12.27;;;6.68;;
23155;SDS011;11746;50.876;4.246;2023-06-05T07:07:14;12.25;;;6.80;;
23155;SDS011;11746;50.876;4.246;2023-06-05T07:09:44;10.38;;;6.90;;
23155;SDS011;11746;50.876;4.246;2023-06-05T07:12:11;11.90;;;7.00;;
23155;SDS011;11746;50.876;4.246;2023-06-05T07:14:38;15.07;;;7.40;;
23155;SDS011;11746;50.876;4.246;2023-06-05T07:17:04;9.55;;;6.60;;
23155;SDS011;11746;50.876;4.246;2023-06-05T07:19:31;15.88;;;7.18;;
23155;SDS011;11746;50.876;4.246;2023-06-05T07:21:58;10.52;;;6.82;;
23155;SDS011;11746;50.876;4.246;2023-06-05T07:24:25;9.93;;;6.75;;
23155;SDS011;11746;50.876;4.246;2023-06-05T07:26:56;12.25;;;7.38;;
23155;SDS011;11746;50.876;4.246;2023-06-05T07:29:24;9.57;;;7.22;;
23155;SDS011;11746;50.876;4.246;2023-06-05T07:31:50;10.80;;;6.70;;
23155;SDS011;11746;50.876;4.246;2023-06-05T07:34:17;11.27;;;7.18;;
23155;SDS011;11746;50.876;4.246;2023-06-05T07:36:44;8.85;;;7.30;;
23155;SDS011;11746;50.876;4.246;2023-06-05T07:39:11;12.25;;;7.13;;
23155;SDS011;11746;50.876;4.246;2023-06-05T07:41:40;9.65;;;7.10;;
23155;SDS011;11746;50.876;4.246;2023-06-05T07:44:08;14.18;;;7.13;;
23155;SDS011;11746;50.876;4.246;2023-06-05T07:46:35;11.38;;;7.15;;
23155;SDS011;11746;50.876;4.246;2023-06-05T07:49:01;11.23;;;6.97;;
23155;SDS011;11746;50.876;4.246;2023-06-05T07:51:26;12.32;;;6.95;;
23155;SDS011;11746;50.876;4.246;2023-06-05T07:53:52;10.23;;;7.30;;
23155;SDS011;11746;50.876;4.246;2023-06-05T07:56:20;13.23;;;7.45;;
23155;SDS011;11746;50.876;4.246;2023-06-05T07:58:49;11.95;;;7.15;;
23155;SDS011;11746;50.876;4.246;2023-06-05T08:01:14;43.50;;;9.75;;
23155;SDS011;11746;50.876;4.246;2023-06-05T08:03:43;12.52;;;7.90;;
23155;SDS011;11746;50.876;4.246;2023-06-05T08:06:10;17.30;;;9.07;;
23155;SDS011;11746;50.876;4.246;2023-06-05T08:08:36;14.00;;;7.50;;
23155;SDS011;11746;50.876;4.246;2023-06-05T08:11:02;11.43;;;7.05;;
23155;SDS011;11746;50.876;4.246;2023-06-05T08:13:30;11.90;;;6.95;;
23155;SDS011;11746;50.876;4.246;2023-06-05T08:15:55;10.65;;;6.93;;
23155;SDS011;11746;50.876;4.246;2023-06-05T08:18:21;10.10;;;7.32;;
23155;SDS011;11746;50.876;4.246;2023-06-05T08:20:49;19.30;;;8.00;;
23155;SDS011;11746;50.876;4.246;2023-06-05T08:23:15;10.65;;;7.20;;
23155;SDS011;11746;50.876;4.246;2023-06-05T08:25:42;8.95;;;6.38;;
23155;SDS011;11746;50.876;4.246;2023-06-05T08:28:08;11.63;;;7.05;;
23155;SDS011;11746;50.876;4.246;2023-06-05T08:30:33;9.50;;;6.82;;
23155;SDS011;11746;50.876;4.246;2023-06-05T08:33:01;10.52;;;6.53;;
23155;SDS011;11746;50.876;4.246;2023-06-05T08:35:32;9.63;;;6.47;;
23155;SDS011;11746;50.876;4.246;2023-06-05T08:37:57;20.48;;;8.13;;
23155;SDS011;11746;50.876;4.246;2023-06-05T08:40:27;11.77;;;7.15;;
23155;SDS011;11746;50.876;4.246;2023-06-05T08:42:54;10.38;;;7.03;;
23155;SDS011;11746;50.876;4.246;2023-06-05T08:45:20;11.73;;;6.93;;
23155;SDS011;11746;50.876;4.246;2023-06-05T08:47:50;10.50;;;6.53;;
23155;SDS011;11746;50.876;4.246;2023-06-05T08:50:16;13.75;;;7.07;;
23155;SDS011;11746;50.876;4.246;2023-06-05T08:52:44;14.13;;;7.82;;
23155;SDS011;11746;50.876;4.246;2023-06-05T08:55:11;9.80;;;7.07;;
23155;SDS011;11746;50.876;4.246;2023-06-05T08:57:41;8.77;;;6.65;;
23155;SDS011;11746;50.876;4.246;2023-06-05T09:00:08;11.13;;;7.00;;
23155;SDS011;11746;50.876;4.246;2023-06-05T09:02:37;15.10;;;7.40;;
23155;SDS011;11746;50.876;4.246;2023-06-05T09:05:04;12.52;;;7.47;;
23155;SDS011;11746;50.876;4.246;2023-06-05T09:07:33;9.32;;;6.28;;
23155;SDS011;11746;50.876;4.246;2023-06-05T09:10:05;10.63;;;6.53;;
23155;SDS011;11746;50.876;4.246;2023-06-05T09:12:32;9.98;;;6.30;;
23155;SDS011;11746;50.876;4.246;2023-06-05T09:15:21;9.15;;;6.78;;
23155;SDS011;11746;50.876;4.246;2023-06-05T09:18:13;11.80;;;6.65;;
23155;SDS011;11746;50.876;4.246;2023-06-05T09:20:40;11.15;;;6.10;;
23155;SDS011;11746;50.876;4.246;2023-06-05T09:23:26;8.57;;;6.10;;
23155;SDS011;11746;50.876;4.246;2023-06-05T09:25:54;8.68;;;5.85;;
23155;SDS011;11746;50.876;4.246;2023-06-05T09:28:25;11.95;;;6.18;;
23155;SDS011;11746;50.876;4.246;2023-06-05T09:30:58;7.75;;;6.00;;
23155;SDS011;11746;50.876;4.246;2023-06-05T09:33:25;9.03;;;6.07;;
23155;SDS011;11746;50.876;4.246;2023-06-05T09:36:06;9.30;;;6.15;;
23155;SDS011;11746;50.876;4.246;2023-06-05T09:38:39;7.43;;;5.55;;
23155;SDS011;11746;50.876;4.246;2023-06-05T09:41:06;8.57;;;5.22;;
23155;SDS011;11746;50.876;4.246;2023-06-05T09:43:35;10.70;;;6.80;;
23155;SDS011;11746;50.876;4.246;2023-06-05T09:46:08;8.50;;;5.93;;
23155;SDS011;11746;50.876;4.246;2023-06-05T09:48:41;9.98;;;5.72;;
23155;SDS011;11746;50.876;4.246;2023-06-05T09:53:42;9.18;;;6.20;;
23155;SDS011;11746;50.876;4.246;2023-06-05T09:56:13;9.73;;;5.85;;
23155;SDS011;11746;50.876;4.246;2023-06-05T09:58:49;10.00;;;5.88;;
23155;SDS011;11746;50.876;4.246;2023-06-05T10:01:17;11.77;;;5.50;;
23155;SDS011;11746;50.876;4.246;2023-06-05T10:03:54;11.63;;;5.63;;
23155;SDS011;11746;50.876;4.246;2023-06-05T10:06:29;8.02;;;7.03;;
23155;SDS011;11746;50.876;4.246;2023-06-05T10:08:56;6.95;;;5.68;;
23155;SDS011;11746;50.876;4.246;2023-06-05T10:11:23;14.60;;;6.03;;
23155;SDS011;11746;50.876;4.246;2023-06-05T10:13:51;12.23;;;5.63;;
23155;SDS011;11746;50.876;4.246;2023-06-05T10:16:22;9.90;;;6.18;;
23155;SDS011;11746;50.876;4.246;2023-06-05T10:18:48;11.85;;;6.07;;
23155;SDS011;11746;50.876;4.246;2023-06-05T10:21:15;70.53;;;9.57;;
23155;SDS011;11746;50.876;4.246;2023-06-05T10:23:43;17.67;;;6.25;;
23155;SDS011;11746;50.876;4.246;2023-06-05T10:26:21;10.00;;;5.47;;
23155;SDS011;11746;50.876;4.246;2023-06-05T10:31:47;19.40;;;6.88;;
23155;SDS011;11746;50.876;4.246;2023-06-05T10:34:29;15.80;;;5.45;;
23155;SDS011;11746;50.876;4.246;2023-06-05T10:39:50;10.10;;;5.65;;
23155;SDS011;11746;50.876;4.246;2023-06-05T10:42:25;20.23;;;5.40;;
23155;SDS011;11746;50.876;4.246;2023-06-05T10:44:54;7.38;;;4.82;;
23155;SDS011;11746;50.876;4.246;2023-06-05T10:52:47;8.15;;;4.90;;
23155;SDS011;11746;50.876;4.246;2023-06-05T10:55:13;7.82;;;4.80;;
23155;SDS011;11746;50.876;4.246;2023-06-05T11:00:30;7.20;;;4.30;;
23155;SDS011;11746;50.876;4.246;2023-06-05T11:02:56;13.82;;;4.38;;
23155;SDS011;11746;50.876;4.246;2023-06-05T11:05:22;7.35;;;4.80;;
23155;SDS011;11746;50.876;4.246;2023-06-05T11:07:51;10.98;;;5.63;;
23155;SDS011;11746;50.876;4.246;2023-06-05T11:11:02;6.53;;;4.43;;
23155;SDS011;11746;50.876;4.246;2023-06-05T11:16:31;7.35;;;4.43;;
23155;SDS011;11746;50.876;4.246;2023-06-05T11:24:35;5.47;;;4.45;;
23155;SDS011;11746;50.876;4.246;2023-06-05T11:27:03;9.95;;;5.47;;
23155;SDS011;11746;50.876;4.246;2023-06-05T11:29:30;9.25;;;4.20;;
23155;SDS011;11746;50.876;4.246;2023-06-05T11:31:57;13.23;;;4.70;;
23155;SDS011;11746;50.876;4.246;2023-06-05T11:34:23;15.60;;;4.85;;
23155;SDS011;11746;50.876;4.246;2023-06-05T11:36:52;7.18;;;3.97;;
23155;SDS011;11746;50.876;4.246;2023-06-05T11:39:18;10.55;;;5.05;;
23155;SDS011;11746;50.876;4.246;2023-06-05T11:41:50;5.57;;;4.35;;
23155;SDS011;11746;50.876;4.246;2023-06-05T11:44:29;11.75;;;4.60;;
23155;SDS011;11746;50.876;4.246;2023-06-05T11:46:56;14.77;;;4.57;;
23155;SDS011;11746;50.876;4.246;2023-06-05T11:49:23;7.15;;;4.30;;
23155;SDS011;11746;50.876;4.246;2023-06-05T11:51:50;4.53;;;3.67;;
23155;SDS011;11746;50.876;4.246;2023-06-05T11:54:23;8.40;;;4.03;;
23155;SDS011;11746;50.876;4.246;2023-06-05T11:56:57;4.32;;;3.17;;
23155;SDS011;11746;50.876;4.246;2023-06-05T11:59:33;6.63;;;3.42;;
23155;SDS011;11746;50.876;4.246;2023-06-05T12:02:04;8.95;;;4.82;;
23155;SDS011;11746;50.876;4.246;2023-06-05T12:04:31;6.20;;;4.00;;
23155;SDS011;11746;50.876;4.246;2023-06-05T12:06:58;6.18;;;4.13;;
23155;SDS011;11746;50.876;4.246;2023-06-05T12:09:30;9.27;;;4.43;;
23155;SDS011;11746;50.876;4.246;2023-06-05T12:12:05;7.43;;;4.07;;
23155;SDS011;11746;50.876;4.246;2023-06-05T12:14:33;11.18;;;4.10;;
23155;SDS011;11746;50.876;4.246;2023-06-05T12:17:08;6.07;;;3.47;;
23155;SDS011;11746;50.876;4.246;2023-06-05T12:19:35;6.07;;;3.37;;
23155;SDS011;11746;50.876;4.246;2023-06-05T12:22:05;5.75;;;3.85;;
23155;SDS011;11746;50.876;4.246;2023-06-05T12:24:32;5.50;;;3.30;;
23155;SDS011;11746;50.876;4.246;2023-06-05T12:26:59;7.72;;;3.92;;
23155;SDS011;11746;50.876;4.246;2023-06-05T12:29:33;6.63;;;3.97;;
23155;SDS011;11746;50.876;4.246;2023-06-05T12:32:21;7.35;;;3.28;;
23155;SDS011;11746;50.876;4.246;2023-06-05T12:34:48;4.88;;;3.00;;
23155;SDS011;11746;50.876;4.246;2023-06-05T12:39:57;7.10;;;3.47;;
23155;SDS011;11746;50.876;4.246;2023-06-05T12:42:23;6.18;;;3.40;;
23155;SDS011;11746;50.876;4.246;2023-06-05T12:44:49;4.07;;;3.33;;
23155;SDS011;11746;50.876;4.246;2023-06-05T12:47:15;6.85;;;3.33;;
23155;SDS011;11746;50.876;4.246;2023-06-05T12:49:41;5.55;;;3.22;;
23155;SDS011;11746;50.876;4.246;2023-06-05T12:52:09;12.63;;;3.72;;
23155;SDS011;11746;50.876;4.246;2023-06-05T12:54:37;6.43;;;2.80;;
23155;SDS011;11746;50.876;4.246;2023-06-05T12:57:04;6.45;;;2.88;;
23155;SDS011;11746;50.876;4.246;2023-06-05T12:59:33;7.50;;;2.97;;
23155;SDS011;11746;50.876;4.246;2023-06-05T13:01:59;29.65;;;4.00;;
23155;SDS011;11746;50.876;4.246;2023-06-05T13:04:25;5.28;;;2.88;;
23155;SDS011;11746;50.876;4.246;2023-06-05T13:06:53;3.97;;;2.45;;
23155;SDS011;11746;50.876;4.246;2023-06-05T13:09:20;24.10;;;5.25;;
23155;SDS011;11746;50.876;4.246;2023-06-05T13:11:47;6.40;;;2.80;;
23155;SDS011;11746;50.876;4.246;2023-06-05T13:14:13;3.28;;;2.05;;
23155;SDS011;11746;50.876;4.246;2023-06-05T13:16:41;5.40;;;2.50;;
23155;SDS011;11746;50.876;4.246;2023-06-05T13:19:06;5.35;;;2.38;;
23155;SDS011;11746;50.876;4.246;2023-06-05T13:21:32;5.43;;;2.47;;
23155;SDS011;11746;50.876;4.246;2023-06-05T13:23:57;5.55;;;2.20;;
23155;SDS011;11746;50.876;4.246;2023-06-05T13:26:23;4.80;;;2.60;;
23155;SDS011;11746;50.876;4.246;2023-06-05T13:28:49;4.78;;;2.30;;
23155;SDS011;11746;50.876;4.246;2023-06-05T13:31:17;4.07;;;2.33;;
23155;SDS011;11746;50.876;4.246;2023-06-05T13:33:45;3.47;;;2.67;;
23155;SDS011;11746;50.876;4.246;2023-06-05T13:36:11;6.05;;;2.95;;
23155;SDS011;11746;50.876;4.246;2023-06-05T13:38:36;6.97;;;2.40;;
23155;SDS011;11746;50.876;4.246;2023-06-05T13:41:04;7.93;;;2.65;;
23155;SDS011;11746;50.876;4.246;2023-06-05T13:43:31;4.20;;;2.75;;
23155;SDS011;11746;50.876;4.246;2023-06-05T13:45:57;5.35;;;2.78;;
23155;SDS011;11746;50.876;4.246;2023-06-05T13:48:25;5.25;;;2.38;;
23155;SDS011;11746;50.876;4.246;2023-06-05T13:50:50;12.77;;;2.33;;
23155;SDS011;11746;50.876;4.246;2023-06-05T13:53:18;10.25;;;2.38;;
23155;SDS011;11746;50.876;4.246;2023-06-05T13:55:46;4.97;;;2.40;;
23155;SDS011;11746;50.876;4.246;2023-06-05T13:58:12;4.15;;;2.28;;
23155;SDS011;11746;50.876;4.246;2023-06-05T14:00:37;3.90;;;2.42;;
23155;SDS011;11746;50.876;4.246;2023-06-05T14:03:03;4.82;;;2.50;;
23155;SDS011;11746;50.876;4.246;2023-06-05T14:05:29;20.80;;;3.38;;
23155;SDS011;11746;50.876;4.246;2023-06-05T14:07:58;8.20;;;3.15;;
23155;SDS011;11746;50.876;4.246;2023-06-05T14:10:24;9.95;;;3.17;;
23155;SDS011;11746;50.876;4.246;2023-06-05T14:12:50;6.50;;;3.10;;
23155;SDS011;11746;50.876;4.246;2023-06-05T14:15:19;6.15;;;2.55;;
23155;SDS011;11746;50.876;4.246;2023-06-05T14:17:46;7.65;;;2.80;;
23155;SDS011;11746;50.876;4.246;2023-06-05T14:20:13;6.97;;;3.00;;
23155;SDS011;11746;50.876;4.246;2023-06-05T14:22:41;6.35;;;2.70;;
23155;SDS011;11746;50.876;4.246;2023-06-05T14:25:07;6.75;;;2.75;;
23155;SDS011;11746;50.876;4.246;2023-06-05T14:27:38;3.70;;;2.33;;
23155;SDS011;11746;50.876;4.246;2023-06-05T14:30:04;5.78;;;2.20;;
23155;SDS011;11746;50.876;4.246;2023-06-05T14:32:30;4.82;;;2.60;;
23155;SDS011;11746;50.876;4.246;2023-06-05T14:34:55;9.65;;;3.03;;
23155;SDS011;11746;50.876;4.246;2023-06-05T14:37:21;3.80;;;2.20;;
23155;SDS011;11746;50.876;4.246;2023-06-05T14:39:49;5.22;;;2.38;;
23155;SDS011;11746;50.876;4.246;2023-06-05T14:42:16;5.43;;;2.35;;
23155;SDS011;11746;50.876;4.246;2023-06-05T14:44:41;8.95;;;3.60;;
23155;SDS011;11746;50.876;4.246;2023-06-05T14:47:07;4.75;;;2.30;;
23155;SDS011;11746;50.876;4.246;2023-06-05T14:49:35;5.25;;;2.70;;
23155;SDS011;11746;50.876;4.246;2023-06-05T14:52:00;10.48;;;3.33;;
23155;SDS011;11746;50.876;4.246;2023-06-05T14:54:26;10.40;;;3.28;;
23155;SDS011;11746;50.876;4.246;2023-06-05T14:56:56;5.88;;;2.95;;
23155;SDS011;11746;50.876;4.246;2023-06-05T14:59:22;5.78;;;2.70;;
23155;SDS011;11746;50.876;4.246;2023-06-05T15:01:50;4.30;;;2.92;;
23155;SDS011;11746;50.876;4.246;2023-06-05T15:04:15;5.82;;;3.30;;
23155;SDS011;11746;50.876;4.246;2023-06-05T15:06:41;5.80;;;2.70;;
23155;SDS011;11746;50.876;4.246;2023-06-05T15:09:06;7.82;;;3.33;;
23155;SDS011;11746;50.876;4.246;2023-06-05T15:11:32;8.38;;;3.25;;
23155;SDS011;11746;50.876;4.246;2023-06-05T15:13:57;3.80;;;2.80;;
23155;SDS011;11746;50.876;4.246;2023-06-05T15:16:23;6.45;;;3.30;;
23155;SDS011;11746;50.876;4.246;2023-06-05T15:18:49;5.32;;;3.53;;